Airport View

Enter AWOS ICAO identifier for current METAR.

ex. KFNL

KSLC 202354Z COR 15006KT 10SM SCT065 BKN080 BKN095 14/04 A3006 RMK AO2 SLP154 CB DSNT W-N SH DSNT N AND S 60001 T01390044 10139 20106 53005

21 Sep 2019 00:32

Phone: 801-328-3567

Other Area AWOS: KU42 - KHIF - KTVY - KOGD

TAF KSLC 202325Z 2100/2206 16008KT P6SM VCSH SCT040 BKN070 FM210400 15005KT P6SM SCT050 BKN080 FM211800 31007KT P6SM FEW080 FM220200 14005KT P6SM SCT120